createdAt,value
2019-05-14T00:04:04.020Z,1
2019-05-14T00:09:06.505Z,1
2019-05-14T00:14:08.935Z,1
2019-05-14T00:19:11.408Z,1
2019-05-14T00:24:13.964Z,1
2019-05-14T00:29:16.412Z,1
2019-05-14T00:34:18.819Z,1
2019-05-14T00:39:21.442Z,1
2019-05-14T00:44:23.736Z,1
2019-05-14T00:49:26.174Z,1
2019-05-14T00:54:28.792Z,1
2019-05-14T00:59:32.157Z,1
2019-05-14T01:04:33.700Z,1
2019-05-14T01:09:36.218Z,1
2019-05-14T01:14:38.590Z,1
2019-05-14T01:19:42.398Z,1
2019-05-14T01:24:43.465Z,1
2019-05-14T01:29:45.922Z,1
2019-05-14T01:34:48.371Z,1
2019-05-14T01:39:51.920Z,1
2019-05-14T01:44:53.309Z,1
2019-05-14T01:49:55.852Z,1
2019-05-14T01:54:58.272Z,1
2019-05-14T02:00:02.217Z,1
2019-05-14T02:05:03.130Z,1
2019-05-14T02:10:07.541Z,1
2019-05-14T02:15:08.202Z,1
2019-05-14T02:20:12.524Z,1
2019-05-14T02:25:13.001Z,1
2019-05-14T02:30:19.096Z,1
2019-05-14T02:35:20.164Z,1
2019-05-14T02:40:20.823Z,1
2019-05-14T02:45:22.967Z,1
2019-05-14T02:50:25.475Z,1
2019-05-14T02:55:29.826Z,1
2019-05-14T03:00:30.423Z,1
2019-05-14T03:05:32.715Z,12.8
2019-05-14T03:10:35.967Z,51.6
2019-05-14T03:15:39.071Z,80.2
2019-05-14T03:20:40.464Z,80.3
2019-05-14T03:25:42.672Z,76.2
2019-05-14T03:30:45.195Z,67
2019-05-14T03:35:51.526Z,67.9
2019-05-14T03:40:50.030Z,68.2
2019-05-14T03:45:52.469Z,70
2019-05-14T03:50:54.908Z,86.7
2019-05-14T03:55:59.637Z,99.9
2019-05-14T04:01:00.539Z,99.9
2019-05-14T04:06:02.503Z,99.9
2019-05-14T04:11:04.715Z,99.9
2019-05-14T04:16:09.265Z,99.9
2019-05-14T04:21:10.327Z,99.9
2019-05-14T04:26:12.185Z,99.9
2019-05-14T04:31:14.592Z,99.9
2019-05-14T04:36:19.435Z,99.9
2019-05-14T04:41:19.899Z,99.9
2019-05-14T04:46:22.046Z,65
2019-05-14T04:51:24.613Z,26.4
2019-05-14T04:56:29.745Z,7.2
2019-05-14T05:01:29.750Z,2.7
2019-05-14T05:06:31.920Z,1.3
2019-05-14T05:11:34.300Z,4.6
2019-05-14T05:16:39.035Z,4.9
2019-05-14T05:21:39.207Z,3.8
2019-05-14T05:26:41.830Z,1
2019-05-14T05:31:44.538Z,1
2019-05-14T05:36:48.452Z,1
2019-05-14T05:41:49.333Z,1
2019-05-14T05:46:51.647Z,1
2019-05-14T05:51:53.988Z,1
2019-05-14T05:56:58.100Z,1
2019-05-14T06:01:58.986Z,1
2019-05-14T06:07:02.684Z,1
2019-05-14T06:12:03.856Z,1
2019-05-14T06:17:08.294Z,1
2019-05-14T06:22:09.732Z,1
2019-05-14T06:27:11.150Z,1
2019-05-14T06:32:13.661Z,1
2019-05-14T06:37:16.144Z,1
2019-05-14T06:42:19.517Z,1
2019-05-14T06:47:21.276Z,1
2019-05-14T06:52:23.570Z,1
2019-05-14T06:57:28.353Z,1
2019-05-14T07:02:28.808Z,1
2019-05-14T07:07:30.919Z,1
2019-05-14T07:12:33.338Z,1
2019-05-14T07:17:38.131Z,1
2019-05-14T07:22:38.873Z,1
2019-05-14T07:27:40.780Z,1
2019-05-14T07:32:43.198Z,1
2019-05-14T07:37:45.720Z,1
2019-05-14T07:42:48.697Z,1
2019-05-14T07:47:50.772Z,1
2019-05-14T07:52:52.988Z,1
2019-05-14T07:57:55.447Z,1
2019-05-14T08:02:58.201Z,1
2019-05-14T08:08:00.371Z,1
2019-05-14T08:13:02.802Z,1
2019-05-14T08:18:08.062Z,1
2019-05-14T08:23:08.926Z,1
2019-05-14T08:28:10.211Z,1
2019-05-14T08:33:12.633Z,1
2019-05-14T08:38:15.071Z,1
2019-05-14T08:43:18.445Z,1
2019-05-14T09:13:32.663Z,1
2019-05-14T09:18:34.796Z,1
2019-05-14T09:28:39.786Z,1
2019-05-14T09:33:42.142Z,1
2019-05-14T09:38:45.053Z,1
2019-05-14T09:43:48.605Z,1
2019-05-14T09:48:49.484Z,1
2019-05-14T09:53:52.107Z,1
2019-05-14T09:58:54.471Z,1
2019-05-14T10:03:59.171Z,1
2019-05-14T10:08:59.342Z,1
2019-05-14T10:14:01.774Z,1
2019-05-14T10:19:04.262Z,1
2019-05-14T10:24:09.086Z,1
2019-05-14T10:29:09.176Z,1
2019-05-14T10:34:11.610Z,1
2019-05-14T10:39:14.057Z,1
2019-05-14T10:44:18.827Z,1
2019-05-14T10:49:23.372Z,1
2019-05-14T10:54:25.564Z,1
2019-05-14T10:59:23.987Z,1
2019-05-14T11:04:28.561Z,1
2019-05-14T11:09:28.907Z,1
2019-05-14T11:14:32.015Z,1
2019-05-14T11:19:33.753Z,1
2019-05-14T11:24:38.481Z,1
2019-05-14T11:29:38.985Z,1
2019-05-14T11:34:41.789Z,1
2019-05-14T11:39:44.436Z,1
2019-05-14T11:44:46.060Z,1
2019-05-14T11:49:49.178Z,1
2019-05-14T11:54:51.251Z,1
2019-05-14T11:59:53.435Z,1
2019-05-14T12:04:55.891Z,1
2019-05-14T12:15:00.839Z,1
2019-05-14T12:20:03.362Z,1
2019-05-14T12:25:08.004Z,1
2019-05-14T12:30:09.564Z,1
2019-05-14T12:35:10.631Z,1
2019-05-14T12:40:15.277Z,1
2019-05-14T12:45:18.783Z,1
2019-05-14T12:50:18.033Z,1
2019-05-14T12:55:20.496Z,1
2019-05-14T13:00:23.033Z,1
2019-05-14T13:05:25.738Z,1
2019-05-14T13:10:29.364Z,1
2019-05-14T13:20:32.718Z,1
2019-05-14T13:25:35.252Z,1
2019-05-14T13:30:37.730Z,1
2019-05-14T13:35:40.517Z,1
2019-05-14T13:40:48.817Z,1
2019-05-14T13:45:45.384Z,1
2019-05-14T13:50:49.017Z,1
2019-05-14T13:55:57.041Z,1
2019-05-14T14:00:52.479Z,1
2019-05-14T14:05:54.839Z,1
2019-05-14T14:11:02.445Z,1
2019-05-14T14:15:59.972Z,1
2019-05-14T14:21:02.362Z,1
2019-05-14T14:26:04.893Z,1
2019-05-14T14:36:09.642Z,1
2019-05-14T14:41:12.288Z,1
2019-05-14T14:46:14.629Z,1
2019-05-14T14:51:19.174Z,1
2019-05-14T14:56:19.446Z,1
2019-05-14T15:01:22.051Z,1
2019-05-14T15:06:24.532Z,1
2019-05-14T15:11:29.324Z,1
2019-05-14T15:16:29.576Z,1
2019-05-14T15:21:31.822Z,1
2019-05-14T15:26:34.180Z,1
2019-05-14T15:31:38.519Z,1
2019-05-14T15:36:41.652Z,1
2019-05-14T15:41:42.128Z,1
2019-05-14T15:46:43.986Z,1
2019-05-14T15:51:46.579Z,1
2019-05-14T15:56:49.384Z,1
2019-05-14T16:01:51.395Z,1
2019-05-14T16:06:53.826Z,1
2019-05-14T16:11:56.311Z,1
2019-05-14T16:16:58.721Z,1
2019-05-14T16:22:01.190Z,1
2019-05-14T16:27:03.661Z,1
2019-05-14T16:32:08.215Z,1
2019-05-14T16:42:11.048Z,1
2019-05-14T16:47:13.480Z,1
2019-05-14T16:52:17.937Z,1
2019-05-14T16:57:18.682Z,1
2019-05-14T17:02:20.877Z,1
2019-05-14T17:07:23.364Z,1
2019-05-14T17:12:25.764Z,1
2019-05-14T17:17:28.292Z,1
2019-05-14T17:22:33.674Z,1
2019-05-14T17:27:33.194Z,1
2019-05-14T17:32:35.669Z,1
2019-05-14T17:37:39.387Z,1
2019-05-14T17:42:40.486Z,1
2019-05-14T17:47:43.036Z,1
2019-05-14T17:52:45.839Z,1
2019-05-14T17:57:55.291Z,1
2019-05-14T18:02:50.417Z,1
2019-05-14T18:07:52.985Z,1
2019-05-14T18:12:56.002Z,1
2019-05-14T18:17:58.810Z,1
2019-05-14T18:23:00.456Z,1
2019-05-14T18:28:02.646Z,1
2019-05-14T18:33:05.087Z,1
2019-05-14T18:38:08.185Z,1
2019-05-14T18:43:10.115Z,1
2019-05-14T18:48:12.480Z,1
2019-05-14T18:53:14.961Z,1
2019-05-14T19:03:20.170Z,1
2019-05-14T19:08:22.351Z,1
2019-05-14T19:13:24.729Z,1
2019-05-14T19:18:28.580Z,1
2019-05-14T19:23:29.659Z,1
2019-05-14T19:28:32.273Z,1
2019-05-14T19:33:34.670Z,1
2019-05-14T19:38:38.829Z,1
2019-05-14T19:43:39.677Z,1
2019-05-14T19:48:42.517Z,1
2019-05-14T19:53:44.443Z,1
2019-05-14T19:58:47.073Z,1
2019-05-14T20:03:49.402Z,1
2019-05-14T20:08:52.037Z,1
2019-05-14T20:13:54.267Z,1
2019-05-14T20:18:58.015Z,1
2019-05-14T20:23:59.166Z,1
2019-05-14T20:29:02.018Z,1
2019-05-14T20:34:04.164Z,1
2019-05-14T20:44:09.035Z,1
2019-05-14T20:49:11.690Z,1
2019-05-14T20:54:14.022Z,1
2019-05-14T20:59:16.439Z,1
2019-05-14T21:04:19.103Z,1
2019-05-14T21:09:21.420Z,1
2019-05-14T21:14:25.204Z,1
2019-05-14T21:19:28.200Z,1
2019-05-14T21:24:29.404Z,1
2019-05-14T21:29:31.285Z,1
2019-05-14T21:34:33.679Z,1
2019-05-14T21:39:38.233Z,1
2019-05-14T21:44:39.175Z,1
2019-05-14T21:49:41.167Z,1
2019-05-14T21:54:43.873Z,1
2019-05-14T21:59:47.981Z,1
2019-05-14T22:04:49.144Z,1
2019-05-14T22:09:51.613Z,1
2019-05-14T22:14:53.456Z,1
2019-05-14T22:19:58.281Z,1
2019-05-14T22:24:58.650Z,1
2019-05-14T22:30:01.054Z,1
2019-05-14T22:35:03.291Z,1
2019-05-14T22:40:07.915Z,1
2019-05-14T22:45:09.285Z,1
2019-05-14T22:50:10.785Z,1
2019-05-14T22:55:13.176Z,1
2019-05-14T23:00:15.607Z,1
2019-05-14T23:05:19.202Z,1
2019-05-14T23:10:20.583Z,1
2019-05-14T23:15:22.964Z,1
2019-05-14T23:20:25.451Z,1
2019-05-14T23:25:29.128Z,1
2019-05-14T23:30:30.375Z,1
2019-05-14T23:35:32.882Z,1
2019-05-14T23:40:35.599Z,1
2019-05-14T23:45:38.256Z,1
2019-05-14T23:50:40.280Z,1
2019-05-14T23:55:42.839Z,1
